Kezdőlap
METAR-TAF:

METAR-TAF

Repülőterek :

Fillmore County Airport

Preston, Minnesota, Amerikai Egyesült Államok

földrajzi szélesség: 43-40-36N, földrajzi hosszúság: 092-10-47W, magasság: 389 m

Jelenlegi meteorológiai megfigyelések

A jelentés 20 perccel ezelõtt készült, 16:35 UTC
Déli szél 5 kt
Hőmérséklet 26°C
Páratartalom 70%
Légköri nyomás 1019 hPa
Látótávolság: 11.3 km
Szórványos felhőzet 1800 lábon
Szórványos felhőzet 2600 lábon
Borult 3300 lábon

METAR: KFKA 131635Z AUTO 19005KT 7SM SCT018 SCT026 OVC033 26/20 A3009 RMK AO2 T02600204

Idő: 11:55 (16:55 UTC)


TAF: hiányzik

Meteorológiai megfigyelések és előrejelzések több, mint 4000 repülőtéren (METAR és TAF jelentéseket).

A térképen piros és sárga pontok jelzik az elérhető meteorológiai állomásokat.

Mozgassa az egeret a pont fölött, hogy megjelenjen az állomás neve.

Azután kattintson az időjárási megfigyelések és előrejelzések megtekintéséhez.

A térkép megváltoztatása: kattintson a fekete keresztel jelölt zöld gombra ráközelítéshez, a vonallal jelölt zöld gombra távolításhoz, vagy a zöld nyilakra a szomszédos térképek eléréséhez.


METAR-TAF: